Aviation Digital Data Service (ADDS)

Output produced by METARs form (0545 UTC 21 January 2019)
found at http://www.aviationweather.gov/metar/data/
 
Forecast for: VMMC (MACAO/MACAU , MO)
Text: TAF VMMC 210500Z 2106/2212 36015KT 8000 FEW030 SCT040
Forecast period: 0600 UTC 21 January 2019 to 1200 UTC 22 January 2019
Forecast type: FROM: standard forecast or significant change
Winds: from the N (360 degrees) at 17 MPH (15 knots; 7.7 m/s)
Visibility: 5 miles (8 km)
Ceiling: at least 12,000 feet AGL
Clouds: few clouds at 3000 feet AGL
scattered clouds at 4000 feet AGL
Weather: no significant weather forecast for this period